sensor_id;sensor_type;location;lat;lon;timestamp;pressure;altitude;pressure_sealevel;temperature;humidity
50592;BME280;36548;50.506;30.834;2022-12-29T00:00:20;100680.97;;;3.37;67.07
50592;BME280;36548;50.506;30.834;2022-12-29T00:01:31;100684.57;;;3.34;66.95
50592;BME280;36548;50.506;30.834;2022-12-29T00:02:41;100684.66;;;3.31;67.11
50592;BME280;36548;50.506;30.834;2022-12-29T00:03:50;100676.66;;;3.33;67.44
50592;BME280;36548;50.506;30.834;2022-12-29T00:05:02;100677.41;;;3.38;67.51
50592;BME280;36548;50.506;30.834;2022-12-29T00:06:11;100678.20;;;3.41;67.16
50592;BME280;36548;50.506;30.834;2022-12-29T00:07:21;100676.36;;;3.44;67.02
50592;BME280;36548;50.506;30.834;2022-12-29T00:08:30;100678.11;;;3.45;66.97
50592;BME280;36548;50.506;30.834;2022-12-29T00:09:49;100680.20;;;3.33;66.50
50592;BME280;36548;50.506;30.834;2022-12-29T00:10:58;100675.89;;;3.29;66.83
50592;BME280;36548;50.506;30.834;2022-12-29T00:12:08;100681.20;;;3.29;67.04
50592;BME280;36548;50.506;30.834;2022-12-29T00:13:17;100679.27;;;3.34;67.38
50592;BME280;36548;50.506;30.834;2022-12-29T00:14:44;100674.05;;;3.31;66.89
50592;BME280;36548;50.506;30.834;2022-12-29T00:16:11;100674.52;;;3.14;67.07
50592;BME280;36548;50.506;30.834;2022-12-29T00:17:20;100681.48;;;3.18;67.58
50592;BME280;36548;50.506;30.834;2022-12-29T00:18:29;100680.53;;;3.21;67.64
50592;BME280;36548;50.506;30.834;2022-12-29T00:19:41;100674.47;;;3.16;67.44
50592;BME280;36548;50.506;30.834;2022-12-29T00:21:17;100678.44;;;2.99;67.71
50592;BME280;36548;50.506;30.834;2022-12-29T00:22:45;100684.33;;;3.11;67.94
50592;BME280;36548;50.506;30.834;2022-12-29T00:24:19;100671.91;;;3.13;67.66
50592;BME280;36548;50.506;30.834;2022-12-29T00:25:36;100685.45;;;3.02;67.86
50592;BME280;36548;50.506;30.834;2022-12-29T00:28:34;100684.59;;;3.01;67.85
50592;BME280;36548;50.506;30.834;2022-12-29T00:30:01;100682.93;;;2.97;67.80
50592;BME280;36548;50.506;30.834;2022-12-29T00:31:27;100683.88;;;2.95;67.82
50592;BME280;36548;50.506;30.834;2022-12-29T00:32:56;100679.48;;;2.94;67.79
50592;BME280;36548;50.506;30.834;2022-12-29T00:34:25;100683.70;;;3.01;68.21
50592;BME280;36548;50.506;30.834;2022-12-29T00:36:00;100683.03;;;2.93;67.91
50592;BME280;36548;50.506;30.834;2022-12-29T00:37:15;100672.23;;;3.00;67.89
50592;BME280;36548;50.506;30.834;2022-12-29T00:38:26;100677.94;;;2.85;67.94
50592;BME280;36548;50.506;30.834;2022-12-29T00:39:54;100680.42;;;2.91;67.88
50592;BME280;36548;50.506;30.834;2022-12-29T00:41:26;100674.89;;;3.00;68.04
50592;BME280;36548;50.506;30.834;2022-12-29T00:42:53;100673.72;;;2.78;68.08
50592;BME280;36548;50.506;30.834;2022-12-29T00:44:20;100679.79;;;2.81;68.25
50592;BME280;36548;50.506;30.834;2022-12-29T00:45:30;100668.05;;;2.92;68.28
50592;BME280;36548;50.506;30.834;2022-12-29T00:46:41;100672.47;;;2.91;67.79
50592;BME280;36548;50.506;30.834;2022-12-29T00:47:51;100666.41;;;2.86;67.74
50592;BME280;36548;50.506;30.834;2022-12-29T00:49:08;100662.48;;;3.01;67.65
50592;BME280;36548;50.506;30.834;2022-12-29T00:50:36;100653.72;;;2.99;67.96
50592;BME280;36548;50.506;30.834;2022-12-29T00:51:54;100654.95;;;3.18;67.71
50592;BME280;36548;50.506;30.834;2022-12-29T00:53:04;100652.50;;;3.11;67.48
50592;BME280;36548;50.506;30.834;2022-12-29T00:54:13;100655.05;;;3.15;67.36
50592;BME280;36548;50.506;30.834;2022-12-29T00:55:22;100650.46;;;3.20;67.45
50592;BME280;36548;50.506;30.834;2022-12-29T00:56:38;100647.66;;;3.27;66.73
50592;BME280;36548;50.506;30.834;2022-12-29T00:57:47;100651.59;;;3.12;66.87
50592;BME280;36548;50.506;30.834;2022-12-29T00:59:04;100644.34;;;3.18;67.13
50592;BME280;36548;50.506;30.834;2022-12-29T01:00:15;100646.09;;;3.19;66.82
50592;BME280;36548;50.506;30.834;2022-12-29T01:01:25;100645.86;;;3.27;67.38
50592;BME280;36548;50.506;30.834;2022-12-29T01:02:35;100643.05;;;3.33;66.74
50592;BME280;36548;50.506;30.834;2022-12-29T01:03:45;100642.91;;;3.38;66.80
50592;BME280;36548;50.506;30.834;2022-12-29T01:05:00;100640.00;;;3.47;65.74
50592;BME280;36548;50.506;30.834;2022-12-29T01:06:11;100639.30;;;3.40;66.03
50592;BME280;36548;50.506;30.834;2022-12-29T01:07:19;100639.34;;;3.39;65.63
50592;BME280;36548;50.506;30.834;2022-12-29T01:08:29;100647.70;;;3.25;65.55
50592;BME280;36548;50.506;30.834;2022-12-29T01:09:38;100642.55;;;3.19;65.78
50592;BME280;36548;50.506;30.834;2022-12-29T01:11:12;100640.23;;;3.06;66.06
50592;BME280;36548;50.506;30.834;2022-12-29T01:12:22;100641.73;;;3.17;66.07
50592;BME280;36548;50.506;30.834;2022-12-29T01:13:34;100643.39;;;3.21;66.06
50592;BME280;36548;50.506;30.834;2022-12-29T01:14:45;100635.54;;;3.16;65.84
50592;BME280;36548;50.506;30.834;2022-12-29T01:15:55;100641.59;;;3.21;65.97
50592;BME280;36548;50.506;30.834;2022-12-29T01:17:05;100630.83;;;3.28;66.21
50592;BME280;36548;50.506;30.834;2022-12-29T01:18:15;100626.48;;;3.25;65.62
50592;BME280;36548;50.506;30.834;2022-12-29T01:19:25;100631.64;;;3.30;65.71
50592;BME280;36548;50.506;30.834;2022-12-29T01:20:37;100622.88;;;3.26;65.04
50592;BME280;36548;50.506;30.834;2022-12-29T01:21:47;100618.47;;;3.27;65.19
50592;BME280;36548;50.506;30.834;2022-12-29T01:22:58;100619.19;;;3.32;65.48
50592;BME280;36548;50.506;30.834;2022-12-29T01:24:06;100614.12;;;3.24;65.02
50592;BME280;36548;50.506;30.834;2022-12-29T01:25:15;100617.47;;;3.31;65.28
50592;BME280;36548;50.506;30.834;2022-12-29T01:26:27;100621.83;;;3.33;65.27
50592;BME280;36548;50.506;30.834;2022-12-29T01:27:36;100620.82;;;3.37;65.36
50592;BME280;36548;50.506;30.834;2022-12-29T01:28:46;100628.69;;;3.40;64.96
50592;BME280;36548;50.506;30.834;2022-12-29T01:29:56;100625.03;;;3.45;65.12
50592;BME280;36548;50.506;30.834;2022-12-29T01:31:09;100625.03;;;3.45;64.62
50592;BME280;36548;50.506;30.834;2022-12-29T01:32:19;100614.81;;;3.31;64.30
50592;BME280;36548;50.506;30.834;2022-12-29T01:33:28;100615.42;;;3.40;64.89
50592;BME280;36548;50.506;30.834;2022-12-29T01:34:37;100613.52;;;3.44;64.71
50592;BME280;36548;50.506;30.834;2022-12-29T01:35:46;100609.97;;;3.45;64.25
50592;BME280;36548;50.506;30.834;2022-12-29T01:36:56;100603.80;;;3.45;64.34
50592;BME280;36548;50.506;30.834;2022-12-29T01:38:08;100601.45;;;3.34;64.07
50592;BME280;36548;50.506;30.834;2022-12-29T01:39:18;100599.75;;;3.31;64.13
50592;BME280;36548;50.506;30.834;2022-12-29T01:40:28;100597.94;;;3.33;64.40
50592;BME280;36548;50.506;30.834;2022-12-29T01:41:37;100595.95;;;3.40;64.74
50592;BME280;36548;50.506;30.834;2022-12-29T01:42:45;100593.54;;;3.32;63.94
50592;BME280;36548;50.506;30.834;2022-12-29T01:43:57;100592.89;;;3.24;63.98
50592;BME280;36548;50.506;30.834;2022-12-29T01:45:10;100593.69;;;3.28;64.31
50592;BME280;36548;50.506;30.834;2022-12-29T01:46:40;100601.66;;;3.26;64.05
50592;BME280;36548;50.506;30.834;2022-12-29T01:47:53;100604.20;;;3.31;64.11
50592;BME280;36548;50.506;30.834;2022-12-29T01:49:15;100590.63;;;3.41;63.89
50592;BME280;36548;50.506;30.834;2022-12-29T01:50:36;100591.28;;;3.18;63.84
50592;BME280;36548;50.506;30.834;2022-12-29T01:51:55;100590.94;;;3.31;63.97
50592;BME280;36548;50.506;30.834;2022-12-29T01:53:16;100594.59;;;3.27;64.19
50592;BME280;36548;50.506;30.834;2022-12-29T01:55:57;100588.19;;;3.34;64.09
50592;BME280;36548;50.506;30.834;2022-12-29T01:58:33;100590.94;;;3.31;63.59
50592;BME280;36548;50.506;30.834;2022-12-29T01:59:53;100584.09;;;3.22;63.54
50592;BME280;36548;50.506;30.834;2022-12-29T02:01:04;100584.14;;;3.20;63.42
50592;BME280;36548;50.506;30.834;2022-12-29T02:02:17;100585.93;;;3.20;63.31
50592;BME280;36548;50.506;30.834;2022-12-29T02:03:27;100573.81;;;3.11;63.37
50592;BME280;36548;50.506;30.834;2022-12-29T02:04:41;100570.11;;;3.17;63.60
50592;BME280;36548;50.506;30.834;2022-12-29T02:06:00;100570.88;;;3.20;63.39
50592;BME280;36548;50.506;30.834;2022-12-29T02:07:19;100568.11;;;3.25;63.83
50592;BME280;36548;50.506;30.834;2022-12-29T02:08:30;100572.87;;;3.12;63.06
50592;BME280;36548;50.506;30.834;2022-12-29T02:09:40;100569.97;;;3.21;63.52
50592;BME280;36548;50.506;30.834;2022-12-29T02:10:53;100571.42;;;3.32;63.35
50592;BME280;36548;50.506;30.834;2022-12-29T02:12:03;100575.83;;;3.33;62.84
50592;BME280;36548;50.506;30.834;2022-12-29T02:13:17;100566.22;;;3.29;62.21
50592;BME280;36548;50.506;30.834;2022-12-29T02:14:27;100566.62;;;3.15;62.52
50592;BME280;36548;50.506;30.834;2022-12-29T02:23:35;100569.80;;;2.96;62.90
50592;BME280;36548;50.506;30.834;2022-12-29T02:33:23;100567.11;;;2.98;62.95
50592;BME280;36548;50.506;30.834;2022-12-29T02:34:47;100568.76;;;3.02;63.03
50592;BME280;36548;50.506;30.834;2022-12-29T02:37:25;100564.20;;;3.07;62.41
50592;BME280;36548;50.506;30.834;2022-12-29T02:40:01;100556.70;;;2.90;62.76
50592;BME280;36548;50.506;30.834;2022-12-29T02:42:50;100559.14;;;2.98;62.92
50592;BME280;36548;50.506;30.834;2022-12-29T02:44:16;100558.29;;;2.97;62.51
50592;BME280;36548;50.506;30.834;2022-12-29T02:46:49;100560.00;;;2.98;62.87
50592;BME280;36548;50.506;30.834;2022-12-29T02:49:48;100556.41;;;3.01;62.49
50592;BME280;36548;50.506;30.834;2022-12-29T02:53:48;100537.39;;;3.16;62.37
50592;BME280;36548;50.506;30.834;2022-12-29T02:55:16;100542.03;;;3.10;62.37
50592;BME280;36548;50.506;30.834;2022-12-29T02:56:26;100543.94;;;3.04;62.17
50592;BME280;36548;50.506;30.834;2022-12-29T02:57:41;100535.33;;;3.26;62.45
50592;BME280;36548;50.506;30.834;2022-12-29T02:58:50;100541.73;;;3.19;62.06
50592;BME280;36548;50.506;30.834;2022-12-29T03:07:35;100535.23;;;2.99;62.05
50592;BME280;36548;50.506;30.834;2022-12-29T03:08:50;100530.97;;;2.94;62.02
50592;BME280;36548;50.506;30.834;2022-12-29T03:11:41;100537.23;;;2.91;61.93
50592;BME280;36548;50.506;30.834;2022-12-29T03:13:24;100529.62;;;2.79;62.48
50592;BME280;36548;50.506;30.834;2022-12-29T03:15:00;100520.80;;;2.78;62.59
50592;BME280;36548;50.506;30.834;2022-12-29T03:16:43;100519.86;;;2.81;62.61
50592;BME280;36548;50.506;30.834;2022-12-29T03:19:41;100510.72;;;2.91;62.64
50592;BME280;36548;50.506;30.834;2022-12-29T03:20:58;100514.70;;;2.75;62.49
50592;BME280;36548;50.506;30.834;2022-12-29T03:22:18;100513.60;;;2.83;62.49
50592;BME280;36548;50.506;30.834;2022-12-29T03:23:43;100513.20;;;2.66;62.51
50592;BME280;36548;50.506;30.834;2022-12-29T03:25:20;100514.09;;;2.65;62.90
50592;BME280;36548;50.506;30.834;2022-12-29T03:26:35;100503.02;;;2.82;62.69
50592;BME280;36548;50.506;30.834;2022-12-29T03:27:51;100508.64;;;2.71;62.54
50592;BME280;36548;50.506;30.834;2022-12-29T03:29:07;100506.55;;;2.82;62.65
50592;BME280;36548;50.506;30.834;2022-12-29T03:30:19;100502.25;;;2.78;62.69
50592;BME280;36548;50.506;30.834;2022-12-29T03:31:30;100512.06;;;2.75;62.40
50592;BME280;36548;50.506;30.834;2022-12-29T03:32:49;100516.41;;;2.77;62.66
50592;BME280;36548;50.506;30.834;2022-12-29T03:34:00;100508.08;;;2.60;63.10
50592;BME280;36548;50.506;30.834;2022-12-29T03:35:13;100514.80;;;2.71;62.98
50592;BME280;36548;50.506;30.834;2022-12-29T03:38:15;100509.77;;;2.94;62.64
50592;BME280;36548;50.506;30.834;2022-12-29T03:39:26;100515.59;;;2.75;62.55
50592;BME280;36548;50.506;30.834;2022-12-29T03:40:39;100502.39;;;2.73;62.40
50592;BME280;36548;50.506;30.834;2022-12-29T03:41:55;100503.68;;;2.59;62.94
50592;BME280;36548;50.506;30.834;2022-12-29T03:43:06;100498.37;;;2.59;62.92
50592;BME280;36548;50.506;30.834;2022-12-29T03:44:16;100500.80;;;2.66;63.03
50592;BME280;36548;50.506;30.834;2022-12-29T03:45:27;100503.16;;;2.44;63.17
50592;BME280;36548;50.506;30.834;2022-12-29T03:46:36;100511.02;;;2.49;63.72
50592;BME280;36548;50.506;30.834;2022-12-29T03:47:46;100515.36;;;2.51;63.25
50592;BME280;36548;50.506;30.834;2022-12-29T03:48:58;100502.06;;;2.53;63.23
50592;BME280;36548;50.506;30.834;2022-12-29T03:50:08;100500.14;;;2.58;63.38
50592;BME280;36548;50.506;30.834;2022-12-29T03:51:19;100510.68;;;2.61;63.10
50592;BME280;36548;50.506;30.834;2022-12-29T03:52:28;100516.22;;;2.52;63.38
50592;BME280;36548;50.506;30.834;2022-12-29T03:53:38;100509.93;;;2.56;63.16
50592;BME280;36548;50.506;30.834;2022-12-29T03:54:51;100513.62;;;2.50;63.19
50592;BME280;36548;50.506;30.834;2022-12-29T03:56:10;100512.16;;;2.71;63.38
50592;BME280;36548;50.506;30.834;2022-12-29T03:57:19;100521.23;;;2.63;63.29
50592;BME280;36548;50.506;30.834;2022-12-29T03:58:32;100519.20;;;2.72;63.37
50592;BME280;36548;50.506;30.834;2022-12-29T03:59:44;100513.05;;;2.70;62.82
50592;BME280;36548;50.506;30.834;2022-12-29T04:00:54;100518.16;;;2.78;62.89
50592;BME280;36548;50.506;30.834;2022-12-29T04:02:03;100508.84;;;2.63;62.72
50592;BME280;36548;50.506;30.834;2022-12-29T04:03:13;100510.92;;;2.52;63.33
50592;BME280;36548;50.506;30.834;2022-12-29T04:04:22;100520.53;;;2.56;63.09
50592;BME280;36548;50.506;30.834;2022-12-29T04:05:31;100516.13;;;2.55;63.22
50592;BME280;36548;50.506;30.834;2022-12-29T04:06:41;100515.89;;;2.64;63.16
50592;BME280;36548;50.506;30.834;2022-12-29T04:07:52;100511.35;;;2.68;63.05
50592;BME280;36548;50.506;30.834;2022-12-29T04:09:04;100514.00;;;2.68;62.78
50592;BME280;36548;50.506;30.834;2022-12-29T04:10:17;100506.48;;;2.52;63.25
50592;BME280;36548;50.506;30.834;2022-12-29T04:11:29;100507.94;;;2.64;63.43
50592;BME280;36548;50.506;30.834;2022-12-29T04:12:42;100512.01;;;2.76;63.40
50592;BME280;36548;50.506;30.834;2022-12-29T04:13:51;100510.02;;;2.84;63.08
50592;BME280;36548;50.506;30.834;2022-12-29T04:15:03;100501.20;;;2.84;62.44
50592;BME280;36548;50.506;30.834;2022-12-29T04:16:14;100497.71;;;2.82;62.52
50592;BME280;36548;50.506;30.834;2022-12-29T04:17:23;100502.86;;;2.88;62.54
50592;BME280;36548;50.506;30.834;2022-12-29T04:18:34;100494.44;;;2.73;62.39
50592;BME280;36548;50.506;30.834;2022-12-29T04:19:44;100493.34;;;2.81;62.74
50592;BME280;36548;50.506;30.834;2022-12-29T04:20:53;100498.74;;;2.78;62.51
50592;BME280;36548;50.506;30.834;2022-12-29T04:22:11;100497.65;;;2.85;62.81
50592;BME280;36548;50.506;30.834;2022-12-29T04:23:21;100499.30;;;2.89;62.74
50592;BME280;36548;50.506;30.834;2022-12-29T04:24:30;100499.16;;;2.94;62.54
50592;BME280;36548;50.506;30.834;2022-12-29T04:25:39;100504.31;;;2.98;62.36
50592;BME280;36548;50.506;30.834;2022-12-29T04:26:50;100492.84;;;2.98;61.98
50592;BME280;36548;50.506;30.834;2022-12-29T04:28:17;100491.00;;;3.00;62.19
50592;BME280;36548;50.506;30.834;2022-12-29T04:29:42;100493.90;;;2.92;62.08
50592;BME280;36548;50.506;30.834;2022-12-29T04:30:56;100491.39;;;2.87;62.05
50592;BME280;36548;50.506;30.834;2022-12-29T04:32:12;100494.06;;;2.86;62.41
50592;BME280;36548;50.506;30.834;2022-12-29T04:33:24;100495.06;;;2.82;62.72
50592;BME280;36548;50.506;30.834;2022-12-29T04:34:35;100487.75;;;2.90;62.94
50592;BME280;36548;50.506;30.834;2022-12-29T04:35:50;100500.95;;;2.93;62.36
50592;BME280;36548;50.506;30.834;2022-12-29T04:37:01;100495.71;;;2.90;62.72
50592;BME280;36548;50.506;30.834;2022-12-29T04:38:12;100496.60;;;2.90;62.32
50592;BME280;36548;50.506;30.834;2022-12-29T04:39:22;100496.71;;;2.86;62.19
50592;BME280;36548;50.506;30.834;2022-12-29T04:40:31;100499.45;;;2.83;62.12
50592;BME280;36548;50.506;30.834;2022-12-29T04:41:42;100496.16;;;2.75;62.44
50592;BME280;36548;50.506;30.834;2022-12-29T04:42:53;100494.45;;;2.72;62.38
50592;BME280;36548;50.506;30.834;2022-12-29T04:44:08;100499.41;;;2.84;62.67
50592;BME280;36548;50.506;30.834;2022-12-29T04:45:28;100495.39;;;2.71;62.62
50592;BME280;36548;50.506;30.834;2022-12-29T04:46:43;100498.33;;;2.60;62.72
50592;BME280;36548;50.506;30.834;2022-12-29T04:47:53;100496.43;;;2.65;62.85
50592;BME280;36548;50.506;30.834;2022-12-29T04:49:07;100489.53;;;2.60;63.10
50592;BME280;36548;50.506;30.834;2022-12-29T04:50:29;100488.25;;;2.73;63.32
50592;BME280;36548;50.506;30.834;2022-12-29T04:51:44;100477.03;;;2.95;62.91
50592;BME280;36548;50.506;30.834;2022-12-29T04:52:54;100487.25;;;2.77;62.61
50592;BME280;36548;50.506;30.834;2022-12-29T04:54:04;100481.79;;;2.83;62.65
50592;BME280;36548;50.506;30.834;2022-12-29T04:55:19;100479.73;;;2.93;62.42
50592;BME280;36548;50.506;30.834;2022-12-29T04:56:28;100488.80;;;2.84;62.45
50592;BME280;36548;50.506;30.834;2022-12-29T04:57:39;100486.84;;;2.91;62.73
50592;BME280;36548;50.506;30.834;2022-12-29T04:58:48;100490.15;;;2.99;62.67
50592;BME280;36548;50.506;30.834;2022-12-29T05:00:01;100476.03;;;2.99;62.05
50592;BME280;36548;50.506;30.834;2022-12-29T05:01:11;100478.09;;;2.89;62.05
50592;BME280;36548;50.506;30.834;2022-12-29T05:02:22;100481.39;;;2.97;62.39
50592;BME280;36548;50.506;30.834;2022-12-29T05:03:32;100474.23;;;2.99;62.45
50592;BME280;36548;50.506;30.834;2022-12-29T05:04:42;100474.92;;;3.06;62.32
50592;BME280;36548;50.506;30.834;2022-12-29T05:05:55;100477.58;;;3.06;61.86
50592;BME280;36548;50.506;30.834;2022-12-29T05:07:05;100482.34;;;2.95;61.63
50592;BME280;36548;50.506;30.834;2022-12-29T05:08:15;100476.84;;;3.01;61.97
50592;BME280;36548;50.506;30.834;2022-12-29T05:09:28;100477.03;;;2.95;61.66
50592;BME280;36548;50.506;30.834;2022-12-29T05:10:45;100482.03;;;3.05;62.02
50592;BME280;36548;50.506;30.834;2022-12-29T05:11:56;100477.03;;;2.95;61.87
50592;BME280;36548;50.506;30.834;2022-12-29T05:13:06;100476.94;;;2.98;62.01
50592;BME280;36548;50.506;30.834;2022-12-29T05:14:16;100486.69;;;2.97;61.97
50592;BME280;36548;50.506;30.834;2022-12-29T05:15:27;100479.44;;;3.02;62.33
50592;BME280;36548;50.506;30.834;2022-12-29T05:16:37;100486.49;;;3.03;61.76
50592;BME280;36548;50.506;30.834;2022-12-29T05:17:46;100486.33;;;3.10;62.09
50592;BME280;36548;50.506;30.834;2022-12-29T05:18:55;100475.62;;;3.13;61.79
50592;BME280;36548;50.506;30.834;2022-12-29T05:20:06;100483.42;;;3.17;61.82
50592;BME280;36548;50.506;30.834;2022-12-29T05:21:22;100469.84;;;3.28;61.12
50592;BME280;36548;50.506;30.834;2022-12-29T05:22:32;100476.38;;;3.16;61.10
50592;BME280;36548;50.506;30.834;2022-12-29T05:23:41;100478.27;;;3.13;61.18
50592;BME280;36548;50.506;30.834;2022-12-29T05:24:50;100480.83;;;3.16;61.36
50592;BME280;36548;50.506;30.834;2022-12-29T05:25:59;100473.72;;;3.16;61.18
50592;BME280;36548;50.506;30.834;2022-12-29T05:27:10;100471.02;;;3.18;61.26
50592;BME280;36548;50.506;30.834;2022-12-29T05:28:45;100481.41;;;3.26;60.79
50592;BME280;36548;50.506;30.834;2022-12-29T05:29:56;100479.12;;;3.13;61.00
50592;BME280;36548;50.506;30.834;2022-12-29T05:31:06;100489.00;;;3.08;61.01
50592;BME280;36548;50.506;30.834;2022-12-29T05:32:15;100484.63;;;3.07;61.30
50592;BME280;36548;50.506;30.834;2022-12-29T05:33:27;100488.19;;;3.06;61.30
50592;BME280;36548;50.506;30.834;2022-12-29T05:34:36;100481.09;;;3.06;61.37
50592;BME280;36548;50.506;30.834;2022-12-29T05:35:46;100485.64;;;3.03;60.96
50592;BME280;36548;50.506;30.834;2022-12-29T05:36:56;100481.19;;;3.03;61.21
50592;BME280;36548;50.506;30.834;2022-12-29T05:38:06;100489.39;;;2.96;61.34
50592;BME280;36548;50.506;30.834;2022-12-29T05:39:15;100491.99;;;2.97;61.42
50592;BME280;36548;50.506;30.834;2022-12-29T05:40:26;100488.34;;;3.01;61.83
50592;BME280;36548;50.506;30.834;2022-12-29T05:41:37;100490.05;;;3.02;61.30
50592;BME280;36548;50.506;30.834;2022-12-29T05:42:48;100490.00;;;3.04;61.37
50592;BME280;36548;50.506;30.834;2022-12-29T05:44:12;100489.05;;;3.06;61.37
50592;BME280;36548;50.506;30.834;2022-12-29T05:45:27;100476.48;;;3.13;61.19
50592;BME280;36548;50.506;30.834;2022-12-29T05:46:38;100494.64;;;2.97;61.12
50592;BME280;36548;50.506;30.834;2022-12-29T05:47:53;100484.84;;;2.99;61.54
50592;BME280;36548;50.506;30.834;2022-12-29T05:49:08;100487.19;;;3.10;61.46
50592;BME280;36548;50.506;30.834;2022-12-29T05:50:21;100496.31;;;3.00;61.56
50592;BME280;36548;50.506;30.834;2022-12-29T05:51:48;100487.33;;;3.05;61.96
50592;BME280;36548;50.506;30.834;2022-12-29T05:52:59;100481.04;;;3.08;61.46
50592;BME280;36548;50.506;30.834;2022-12-29T05:54:08;100477.43;;;3.11;61.48
50592;BME280;36548;50.506;30.834;2022-12-29T05:55:19;100478.32;;;3.11;61.51
50592;BME280;36548;50.506;30.834;2022-12-29T05:56:30;100474.73;;;3.12;61.13
50592;BME280;36548;50.506;30.834;2022-12-29T05:57:42;100475.52;;;3.16;61.46
50592;BME280;36548;50.506;30.834;2022-12-29T05:58:53;100471.13;;;3.15;61.10
50592;BME280;36548;50.506;30.834;2022-12-29T06:00:04;100465.72;;;3.18;61.30
50592;BME280;36548;50.506;30.834;2022-12-29T06:01:16;100462.16;;;3.19;61.07
50592;BME280;36548;50.506;30.834;2022-12-29T06:02:26;100467.61;;;3.14;60.70
50592;BME280;36548;50.506;30.834;2022-12-29T06:03:35;100468.56;;;3.12;60.71
50592;BME280;36548;50.506;30.834;2022-12-29T06:04:44;100468.78;;;3.04;61.13
50592;BME280;36548;50.506;30.834;2022-12-29T06:05:53;100465.23;;;3.05;61.29
50592;BME280;36548;50.506;30.834;2022-12-29T06:07:03;100471.27;;;3.10;61.64
50592;BME280;36548;50.506;30.834;2022-12-29T06:08:20;100464.91;;;3.16;62.00
50592;BME280;36548;50.506;30.834;2022-12-29T06:09:30;100466.97;;;3.06;61.08
50592;BME280;36548;50.506;30.834;2022-12-29T06:10:40;100466.88;;;3.09;61.19
50592;BME280;36548;50.506;30.834;2022-12-29T06:11:50;100468.52;;;3.13;61.49
50592;BME280;36548;50.506;30.834;2022-12-29T06:13:00;100471.42;;;3.05;61.02
50592;BME280;36548;50.506;30.834;2022-12-29T06:14:12;100465.33;;;3.02;61.29
50592;BME280;36548;50.506;30.834;2022-12-29T06:15:21;100466.06;;;3.07;61.54
50592;BME280;36548;50.506;30.834;2022-12-29T06:16:31;100464.17;;;3.11;61.60
50592;BME280;36548;50.506;30.834;2022-12-29T06:17:43;100455.11;;;3.18;61.91
50592;BME280;36548;50.506;30.834;2022-12-29T06:18:53;100464.69;;;3.23;61.28
50592;BME280;36548;50.506;30.834;2022-12-29T06:20:04;100463.68;;;3.28;61.29
50592;BME280;36548;50.506;30.834;2022-12-29T06:21:13;100460.03;;;3.30;60.95
50592;BME280;36548;50.506;30.834;2022-12-29T06:22:22;100459.98;;;3.32;60.82
50592;BME280;36548;50.506;30.834;2022-12-29T06:23:32;100474.14;;;3.32;60.71
50592;BME280;36548;50.506;30.834;2022-12-29T06:24:42;100466.12;;;3.34;61.10
50592;BME280;36548;50.506;30.834;2022-12-29T06:25:51;100475.73;;;3.38;61.08
50592;BME280;36548;50.506;30.834;2022-12-29T06:27:01;100474.14;;;3.32;60.49
50592;BME280;36548;50.506;30.834;2022-12-29T06:28:10;100472.29;;;3.34;60.78
50592;BME280;36548;50.506;30.834;2022-12-29T06:29:19;100470.31;;;3.13;60.66
50592;BME280;36548;50.506;30.834;2022-12-29T06:30:29;100477.27;;;3.17;61.10
50592;BME280;36548;50.506;30.834;2022-12-29T06:31:39;100476.14;;;2.94;61.26
50592;BME280;36548;50.506;30.834;2022-12-29T06:32:48;100472.84;;;2.86;61.54
50592;BME280;36548;50.506;30.834;2022-12-29T06:33:58;100477.59;;;2.75;62.29
50592;BME280;36548;50.506;30.834;2022-12-29T06:35:10;100474.88;;;2.78;62.36
50592;BME280;36548;50.506;30.834;2022-12-29T06:36:24;100474.78;;;2.81;62.15
50592;BME280;36548;50.506;30.834;2022-12-29T06:37:33;100476.18;;;2.63;62.65
50592;BME280;36548;50.506;30.834;2022-12-29T06:38:42;100473.64;;;2.58;62.89
50592;BME280;36548;50.506;30.834;2022-12-29T06:39:52;100480.44;;;2.68;63.11
50592;BME280;36548;50.506;30.834;2022-12-29T06:41:03;100478.30;;;2.81;63.09
50592;BME280;36548;50.506;30.834;2022-12-29T06:42:16;100472.69;;;2.92;62.84
50592;BME280;36548;50.506;30.834;2022-12-29T06:43:32;100469.98;;;2.94;62.04
50592;BME280;36548;50.506;30.834;2022-12-29T06:44:44;100476.84;;;3.01;62.17
50592;BME280;36548;50.506;30.834;2022-12-29T06:45:53;100487.34;;;3.04;61.84
50592;BME280;36548;50.506;30.834;2022-12-29T06:47:03;100482.24;;;2.98;61.55
50592;BME280;36548;50.506;30.834;2022-12-29T06:48:13;100495.50;;;2.98;61.80
50592;BME280;36548;50.506;30.834;2022-12-29T06:49:23;100498.34;;;2.92;61.92
50592;BME280;36548;50.506;30.834;2022-12-29T06:50:31;100492.11;;;2.93;61.97
50592;BME280;36548;50.506;30.834;2022-12-29T06:51:41;100497.55;;;2.88;62.03
50592;BME280;36548;50.506;30.834;2022-12-29T06:52:56;100483.80;;;3.05;62.01
50592;BME280;36548;50.506;30.834;2022-12-29T06:54:06;100491.15;;;2.95;62.00
50592;BME280;36548;50.506;30.834;2022-12-29T06:55:15;100494.70;;;2.96;61.94
50592;BME280;36548;50.506;30.834;2022-12-29T06:56:25;100492.20;;;2.89;61.98
50592;BME280;36548;50.506;30.834;2022-12-29T06:57:34;100488.45;;;2.97;62.14
50592;BME280;36548;50.506;30.834;2022-12-29T06:58:42;100492.34;;;2.85;62.27
50592;BME280;36548;50.506;30.834;2022-12-29T06:59:52;100490.15;;;2.99;62.58
50592;BME280;36548;50.506;30.834;2022-12-29T07:01:03;100492.66;;;3.04;62.41
50592;BME280;36548;50.506;30.834;2022-12-29T07:02:13;100485.29;;;3.14;62.45
50592;BME280;36548;50.506;30.834;2022-12-29T07:03:24;100491.23;;;3.22;62.36
50592;BME280;36548;50.506;30.834;2022-12-29T07:15:37;100495.17;;;3.67;60.74
50592;BME280;36548;50.506;30.834;2022-12-29T07:16:53;100490.56;;;3.72;61.00
50592;BME280;36548;50.506;30.834;2022-12-29T07:18:02;100492.47;;;3.68;60.92